תחנות METAR סמוכות

 

LLBG - Ben-Gurion(Civ/M, Israel
Distance from station: 'מ 83km
עודכן: 15/06/2021 16:20
בהיר
בהיר
 רוח מ 'צמ
רוח: 'צמ 20 km/h
טמפרטורה: 28°C
עומס חום: 28°C
נקודת הטל: 16°C
לחות: 48%
ברומטר: 1010 hPa
סיכום: בהיר
ראות: greater than 10 km
2021/06/15 13:20 LLBG 151320Z 32011KT CAVOK 28/16 Q1010 NOSIG
LLSD - Sde Dov Airport, Israel
Distance from station: 'מ 75km
עודכן: 30/06/2019 23:50
לא מעודכן
מעונן חלקית
מעונן חלקית
 רוח מ משתנה
רוח: משתנה 6 km/h
טמפרטורה: 27°C
עומס חום: 30°C
נקודת הטל: 23°C
לחות: 79%
ברומטר: 1007 hPa
עננים: מעונן חלקית
ראות: 10 km
Cloud details: מעונן חלקית 518 m
2019/06/30 20:50 LLSD 302050Z VRB03KT 9999 SCT017 27/23 Q1007
 
LLHA - Haifa (isr-Afb), Israel
Distance from station: 'צמ 129km
עודכן: 15/06/2021 15:50
Few Clouds
Few Clouds
 רוח מ 'צמ
רוח: 'צמ 17 km/h
טמפרטורה: 27°C
עומס חום: 28°C
נקודת הטל: 17°C
לחות: 54%
ברומטר: 1011 hPa
עננים: Few Clouds
ראות: 10 km
Cloud details: Few Clouds 914 m
2021/06/15 12:50 LLHA 151250Z 31009KT 9999 FEW030 27/17 Q1011
LLIB - Ben Ya Akov, Israel
Distance from station: 'צמ 183km
עודכן: 15/06/2021 15:50
בהיר
בהיר
 רוח מ 'צצמ
רוח: 'צצמ 26 km/h
טמפרטורה: 28°C
נקודת הטל: 12°C
לחות: 37%
ברומטר: 1010 hPa
סיכום: בהיר
ראות: greater than 10 km
2021/06/15 12:50 LLIB 151250Z AUTO 33014KT CAVOK 28/12 Q1010
 
LLOV - Ovda (isr-Afb/Ci, Israel
Distance from station: 'דדמ 246km
עודכן: 31/03/2019 22:50
לא מעודכן
בהיר
בהיר
 רוח מ 'מדמ
רוח: 'מדמ 13 km/h
טמפרטורה: 12°C
נקודת הטל: 0°C
לחות: 44%
ברומטר: 1012 hPa
סיכום: בהיר
ראות: greater than 10 km
2019/03/31 19:50 LLOV 311950Z 24007KT CAVOK 12/00 Q1012
LLET - Elat/J. Hozman(A, Israel
Distance from station: 'דדמ 287km
עודכן: 18/03/2019 17:50
לא מעודכן
בהיר
בהיר
 רוח מ 'צצמ
רוח: 'צצמ 30 km/h
טמפרטורה: 24°C
נקודת הטל: -1°C
לחות: 19%
ברומטר: 1016 hPa
סיכום: בהיר
ראות: greater than 10 km
2019/03/18 15:50 LLET 181550Z 02016KT CAVOK 24/M01 Q1016
 
LCLK - Larnaca/Larnax A, Cyprus
Distance from station: 'צ 321km
עודכן: 15/06/2021 16:30
מעונן חלקית
מעונן חלקית
 רוח מ 'דמ
רוח: 'דמ 44 km/h
טמפרטורה: 28°C
עומס חום: 29°C
נקודת הטל: 20°C
לחות: 62%
עננים: מעונן חלקית
ראות: 10 km
Cloud details: Few Clouds 610 m
מעונן חלקית 1829 m
2021/06/15 13:30 LCLK 151330Z 22024KT 9999 FEW020 SCT060 28/20 Q//// NOSIG